Date,TemperatureHighF,TemperatureAvgF,TemperatureLowF,DewpointHighF,DewpointAvgF,DewpointLowF,HumidityHigh,HumidityAvg,HumidityLow,PressureMaxIn,PressureMinIn,WindSpeedMaxMPH,WindSpeedAvgMPH,GustSpeedMaxMPH,PrecipitationSumIn
2013-1-1,32.4,31.0,23.2,31.1,29.2,17.7,99,93,80,29.90,28.67,6,2,7,0.00
2013-1-2,34.2,23.0,15.0,17.9,13.9,10.9,89,68,45,30.09,28.76,9,2,9,0.00
2013-1-3,35.6,24.5,12.0,20.7,15.5,9.3,95,69,54,30.09,28.82,10,3,15,0.00
2013-1-4,34.2,29.4,27.5,22.7,20.4,18.2,78,69,56,30.00,28.84,10,5,15,0.00
2013-1-5,38.8,31.0,26.4,25.0,21.8,17.6,78,69,56,30.00,28.86,9,3,12,0.00
2013-1-6,55.4,34.4,34.0,31.8,29.5,22.6,89,82,60,30.02,21.58,10,5,10,0.52
2013-1-7,37.0,28.6,23.2,28.6,24.0,20.6,92,83,61,30.20,30.02,7,2,8,0.00
2013-1-8,48.3,32.1,19.8,30.5,24.9,18.4,98,77,50,30.18,30.07,7,0,7,0.00
2013-1-9,47.7,38.5,29.7,41.8,32.7,25.0,94,80,66,30.29,30.05,10,3,10,0.00
2013-1-10,44.1,36.8,28.9,31.8,29.3,26.4,94,75,60,30.42,24.33,6,1,6,0.00
2013-1-11,51.8,47.0,39.7,51.5,42.2,28.1,99,84,62,30.11,29.81,8,1,8,0.14
2013-1-12,63.0,55.5,48.7,57.9,53.7,48.4,99,94,78,29.93,29.80,7,1,7,0.01
2013-1-13,70.2,60.6,55.0,57.3,54.5,52.4,99,81,63,29.81,29.71,9,2,9,0.13
2013-1-14,56.8,40.3,32.2,56.5,34.3,25.0,99,80,56,30.17,29.73,15,3,15,0.09
2013-1-15,32.2,29.7,25.7,30.7,24.5,22.3,99,81,73,30.18,29.88,11,4,11,0.16
2013-1-16,34.0,32.3,30.9,33.7,32.0,30.5,99,99,94,29.88,29.70,15,6,15,0.35
2013-1-17,35.2,32.2,30.4,30.7,28.9,27.7,96,88,79,30.00,29.82,23,8,23,0.03
2013-1-18,35.1,26.8,18.7,28.1,15.2,7.3,95,62,44,30.30,29.94,29,11,29,0.00
2013-1-19,55.4,42.8,28.2,24.4,19.1,13.0,61,39,26,30.08,29.69,30,12,30,0.02
2013-1-20,46.9,35.6,23.5,31.1,19.7,12.5,65,53,41,29.96,29.64,34,17,35,0.00
2013-1-21,27.3,21.4,12.2,21.5,13.1,0.0,97,70,52,29.94,29.73,33,12,33,0.00
2013-1-22,15.3,9.3,5.9,2.7,-0.9,-4.4,76,63,47,30.08,29.85,28,16,28,0.00
2013-1-23,16.0,10.9,3.2,11.1,1.8,-1.4,88,67,49,30.11,29.88,20,8,20,0.00
2013-1-24,22.1,15.6,9.9,12.6,6.4,-3.8,94,69,34,30.34,29.86,26,7,26,0.00
2013-1-25,21.9,14.7,9.9,19.5,10.7,1.9,98,84,66,30.33,29.84,14,4,14,0.00
2013-1-26,26.8,22.0,17.8,24.7,19.7,14.7,99,91,77,30.25,29.90,18,7,18,0.00
2013-1-27,32.0,23.1,12.0,21.4,16.1,11.6,99,76,55,30.33,30.12,9,4,9,0.05
2013-1-28,49.8,40.5,29.5,49.5,39.2,19.8,99,95,63,30.13,29.85,16,7,16,0.58
2013-1-29,67.1,56.5,49.8,56.7,52.2,49.5,99,87,67,29.89,29.65,14,6,14,0.01
2013-1-30,84.9,32.4,-40.0,75.2,27.1,-41.4,99,84,61,29.65,29.10,50,8,50,1.01
2013-1-31,46.0,27.9,21.0,45.7,23.2,12.4,99,83,55,29.67,29.08,43,22,43,0.02
2013-2-1,22.3,15.3,9.0,21.9,8.6,2.8,99,75,57,30.13,29.64,30,16,30,0.00
2013-2-2,25.5,16.7,5.5,22.6,13.7,-34.5,99,88,72,30.12,29.77,16,6,16,0.00
2013-2-3,27.5,22.5,17.1,24.4,20.7,14.0,99,93,79,29.83,29.63,25,9,25,0.00
2013-2-4,28.4,22.1,16.3,26.4,18.8,12.0,99,87,68,29.88,29.67,21,8,21,0.00
2013-2-5,32.2,28.7,26.6,31.0,27.9,25.8,99,97,84,29.97,29.64,15,5,15,0.00
2013-2-6,32.0,27.5,20.5,27.5,23.5,17.9,99,86,63,30.14,29.75,17,7,17,0.00
2013-2-7,42.1,30.5,18.3,29.7,24.1,16.6,94,78,60,30.11,29.79,14,7,14,0.08
2013-2-8,39.6,34.8,28.9,37.5,31.9,25.7,99,89,79,29.80,29.63,31,10,31,0.13
2013-2-10,55.9,50.4,43.3,29.0,20.7,19.1,56,31,28,30.06,29.79,10,4,11,0.00
2013-2-11,63.9,47.9,37.6,48.1,36.3,25.5,99,68,31,29.81,29.49,43,15,43,0.06
2013-2-12,44.8,36.5,29.3,27.9,25.5,24.4,82,65,51,29.90,29.75,33,13,33,0.00
2013-2-13,39.9,31.4,25.5,33.0,27.5,22.7,99,86,63,29.75,29.51,9,3,9,0.00
2013-2-14,43.5,34.3,26.6,35.2,30.5,25.8,99,87,67,29.79,29.67,21,6,21,0.19
2013-2-15,39.7,34.9,27.5,35.6,30.0,25.9,99,83,62,29.86,29.73,22,8,22,0.00
2013-2-16,30.6,25.1,19.0,26.3,18.4,12.4,95,76,53,29.95,29.73,17,4,17,0.00
2013-2-17,21.7,18.4,14.9,20.5,13.3,5.2,97,81,58,30.06,29.72,25,14,27,0.00
2013-2-18,46.8,27.0,7.2,30.7,15.5,4.1,90,64,37,30.11,29.72,10,3,10,0.00
2013-2-19,44.4,36.1,24.3,39.7,29.7,14.8,99,79,51,29.75,29.51,40,15,40,0.17
2013-2-20,24.3,20.2,18.0,19.1,13.7,9.2,94,76,60,30.02,29.75,38,17,38,0.00
2013-2-21,27.0,21.0,18.7,17.2,14.7,12.3,86,76,62,30.15,29.99,21,9,21,0.00
2013-2-22,38.1,30.9,20.5,34.7,25.8,14.7,99,82,57,30.09,29.81,20,8,20,0.01
2013-2-23,47.5,37.4,32.9,38.2,33.1,29.9,92,85,71,29.90,29.67,11,4,11,0.00
2013-2-24,33.6,29.4,26.4,29.9,24.2,20.5,94,81,68,29.95,29.67,20,8,20,0.00
2013-2-25,42.4,32.5,22.3,26.5,23.2,21.3,96,70,50,30.04,29.87,12,4,12,0.00
2013-2-26,40.1,36.1,31.5,36.8,28.6,21.0,99,76,53,29.89,29.41,24,11,24,0.71
2013-2-27,43.9,38.5,33.6,40.2,36.7,32.2,99,93,75,29.51,29.39,25,8,25,0.22
2013-2-28,34.0,32.5,31.6,33.1,31.3,29.0,99,95,88,29.62,29.45,20,9,20,0.01
2013-3-1,31.8,29.4,25.3,31.0,25.4,20.3,97,85,77,29.78,29.62,18,10,18,0.00
2013-3-2,28.6,26.1,24.3,23.2,21.0,18.2,95,81,70,29.83,29.71,13,8,14,0.00
2013-3-3,28.6,25.2,22.6,23.5,19.7,16.4,94,80,65,29.81,29.72,20,12,20,0.00
2013-3-4,39.6,27.7,20.8,20.4,17.7,13.5,92,67,45,29.92,29.81,21,10,21,0.00
2013-3-5,45.7,33.3,19.4,30.4,17.8,10.5,92,56,28,29.90,29.51,21,8,21,0.00
2013-3-6,40.5,35.0,30.7,31.8,28.7,-3.5,99,79,56,29.92,29.50,23,8,23,0.19
2013-3-7,41.0,35.4,32.5,30.6,27.7,24.1,87,74,54,30.08,29.91,19,9,19,0.00
2013-3-8,40.3,32.7,28.0,28.3,25.5,24.2,87,75,63,30.20,30.08,19,10,19,0.00
2013-3-9,61.9,39.4,23.0,31.9,25.6,21.5,96,62,31,30.21,30.00,9,4,9,0.00
2013-3-10,74.7,57.3,42.6,36.8,29.7,21.6,45,35,25,30.00,29.84,14,5,14,0.00
2013-3-11,62.2,62.2,62.2,33.5,33.5,33.5,34,34,34,29.87,29.87,4,4,4,0.00
2013-3-12,62.2,44.2,35.8,37.0,31.5,26.3,96,65,34,29.88,29.66,24,11,24,0.00
2013-3-13,39.4,31.4,26.6,30.5,24.9,16.3,97,78,47,29.93,29.74,34,14,35,0.00
2013-3-14,37.4,29.8,24.4,19.6,17.5,15.5,74,61,44,30.01,29.93,28,16,28,0.00
2013-3-15,49.5,37.9,26.1,34.9,25.1,17.6,81,60,48,29.95,29.64,26,9,26,0.00
2013-3-16,40.3,36.4,33.3,37.4,34.2,31.2,96,92,81,29.77,29.46,13,6,13,0.03
2013-3-17,39.6,32.2,28.0,31.2,23.0,19.1,92,69,51,30.00,29.77,13,6,13,0.00
2013-3-18,41.4,34.2,29.8,36.4,28.6,20.7,93,80,62,29.97,29.52,21,10,21,0.35
2013-3-19,45.1,37.8,29.8,41.6,27.0,16.8,97,67,39,29.78,29.52,45,18,45,0.02
2013-3-20,40.5,31.8,26.2,21.6,17.8,15.7,67,56,41,29.80,29.63,29,14,29,0.00
2013-3-21,27.7,23.6,18.0,20.5,12.6,5.9,88,63,46,29.71,29.66,24,13,24,0.00
2013-3-22,35.2,28.3,23.5,19.8,18.2,16.3,78,66,52,29.83,29.70,23,12,23,0.00
2013-3-23,48.0,32.2,18.1,25.2,20.4,15.4,90,64,39,29.85,29.79,20,5,20,0.00
2013-3-24,42.1,33.1,26.4,29.4,22.1,18.8,90,65,45,29.82,29.36,22,10,22,0.00
2013-3-25,37.6,33.0,30.4,34.0,31.4,27.3,99,94,78,29.55,29.28,18,7,18,0.50
2013-3-26,41.5,35.3,31.1,32.3,30.5,28.4,98,84,61,29.89,29.55,23,9,23,0.07
2013-3-27,42.3,35.4,31.5,31.4,28.9,24.5,96,79,52,29.97,29.87,25,12,25,0.00
2013-3-28,42.4,37.4,32.7,30.9,28.9,27.4,89,72,59,30.07,29.94,23,10,23,0.00
2013-3-29,55.2,42.7,34.0,34.3,27.4,22.3,83,57,32,30.08,29.97,20,6,20,0.00
2013-3-30,62.6,43.9,27.7,27.9,23.1,19.4,74,46,23,30.07,29.86,14,3,14,0.00
2013-3-31,53.4,46.1,41.9,45.5,35.4,21.9,92,68,43,29.97,29.56,13,5,13,0.12
2013-4-1,45.9,40.4,31.6,41.9,28.1,13.4,92,64,33,29.83,29.55,28,13,28,0.01
2013-4-2,42.4,32.6,26.8,20.4,15.5,12.6,76,50,34,30.00,29.83,26,12,27,0.00
2013-4-3,39.0,31.6,24.4,22.4,13.8,8.8,67,48,33,30.21,29.99,30,9,30,0.00
2013-4-4,60.4,38.3,18.7,20.2,14.5,7.2,77,43,16,30.20,29.79,11,4,11,0.00
2013-4-5,54.9,43.9,33.8,30.9,23.8,19.5,63,45,31,29.99,29.76,27,9,27,0.00
2013-4-6,64.9,40.8,23.5,23.1,18.7,11.6,78,47,15,30.11,29.85,12,4,12,0.00
2013-4-7,72.8,61.2,51.6,48.1,37.4,21.1,64,42,30,29.85,29.72,25,8,28,0.00
2013-4-8,77.7,63.9,48.6,50.8,45.5,39.7,72,53,36,29.88,29.74,17,6,22,0.00
2013-4-9,84.6,71.0,59.9,57.3,53.1,49.1,72,54,37,29.94,29.75,20,7,21,0.00
2013-4-10,122.2,69.6,39.4,81.2,56.9,-1.0,95,66,46,29.88,29.64,37,7,37,0.35
2013-4-11,78.6,66.2,55.0,60.3,56.0,49.5,97,72,51,29.72,29.45,22,6,22,0.00
2013-4-12,66.6,57.9,45.3,58.2,49.3,33.7,94,74,54,29.69,29.36,32,13,32,0.70
2013-4-13,57.2,47.4,43.0,35.6,34.3,31.9,69,61,43,29.85,29.69,26,11,26,0.00
2013-4-14,69.8,49.1,31.3,38.2,32.1,24.6,80,54,33,29.99,29.84,22,6,22,0.00
2013-4-15,70.0,61.5,55.9,50.9,45.5,36.7,71,56,48,30.00,29.81,14,7,14,0.00
2013-4-16,81.9,65.4,54.7,60.3,53.9,47.4,95,68,47,30.04,29.87,42,8,42,1.01
2013-4-17,76.8,60.1,49.8,58.2,53.7,47.6,96,81,52,30.08,29.93,12,4,12,0.09
2013-4-18,89.4,73.1,60.4,63.3,58.3,54.7,85,62,40,29.95,29.64,22,8,22,0.00
2013-4-19,73.4,59.2,43.9,62.9,49.6,31.2,99,71,56,29.70,29.35,36,12,36,0.09
2013-4-20,48.9,41.1,35.6,35.5,27.7,23.1,94,60,39,30.22,29.70,30,16,30,0.00
2013-4-21,59.5,41.4,27.7,25.9,22.6,18.3,84,50,27,30.41,30.22,16,6,16,0.00
2013-4-22,64.4,50.9,41.9,31.2,26.9,21.8,54,41,23,30.29,30.11,20,9,20,0.00
2013-4-23,78.8,57.0,39.0,39.8,35.3,31.0,78,48,23,30.12,29.82,13,5,13,0.00
2013-4-24,73.6,56.3,39.7,58.0,46.0,34.9,99,71,48,29.99,29.62,39,11,39,0.20
2013-4-25,62.4,46.6,33.6,39.8,33.4,28.1,99,64,29,30.18,29.98,22,10,22,0.00
2013-4-26,67.5,49.7,35.8,41.8,33.8,26.3,99,61,27,30.30,30.18,12,3,12,0.00
2013-4-27,81.7,58.8,38.8,40.6,34.4,28.6,71,42,23,30.22,30.00,14,7,14,0.00
2013-4-28,60.4,56.7,54.0,53.9,47.4,40.3,94,72,48,30.00,29.80,17,8,17,0.16
2013-4-29,69.4,58.4,54.0,59.9,53.7,48.1,98,85,68,29.88,29.78,13,4,13,0.04
2013-4-30,74.1,61.6,54.0,55.8,52.9,50.6,96,75,53,30.04,29.87,19,8,19,0.00
2013-5-1,79.5,64.8,53.6,53.6,47.1,33.9,85,57,31,30.15,30.03,15,8,15,0.00
2013-5-2,79.0,64.3,51.4,42.3,36.4,30.1,58,38,19,30.33,30.05,19,8,19,0.00
2013-5-3,74.3,62.8,50.7,46.2,40.5,31.4,58,45,26,30.10,30.01,21,9,21,0.00
2013-5-4,72.3,59.7,46.4,44.7,40.4,35.4,68,50,33,30.05,29.93,23,9,23,0.00
2013-5-5,75.6,60.9,48.9,41.7,34.9,24.3,74,42,17,29.99,29.86,21,10,21,0.00
2013-5-6,72.9,59.4,46.2,54.8,46.9,37.2,82,64,50,29.93,29.85,21,9,21,0.00
2013-5-7,67.8,60.9,55.9,58.0,55.5,53.6,97,83,64,29.87,29.79,18,10,18,0.06
2013-5-8,80.6,63.9,53.1,57.6,52.2,46.3,99,70,36,29.84,29.73,19,6,19,0.21
2013-5-9,79.3,63.6,51.1,63.6,54.7,48.4,99,76,40,30.08,29.74,17,4,17,0.07
2013-5-10,79.3,63.4,49.8,66.7,58.5,20.2,98,85,57,29.85,29.66,30,5,30,0.48
2013-5-11,59.9,56.7,50.9,59.6,55.0,48.9,99,94,81,29.68,29.62,15,7,15,0.26
2013-5-12,54.9,47.9,39.7,49.7,33.8,27.4,95,60,39,29.87,29.66,30,14,30,0.00
2013-5-13,56.1,44.5,34.7,31.8,27.3,23.1,82,53,32,30.00,29.87,22,9,22,0.00
2013-5-14,64.4,48.7,30.4,41.0,35.0,26.3,94,62,37,30.01,29.74,12,4,12,0.00
2013-5-15,88.5,71.0,55.0,64.0,55.3,40.0,77,59,43,29.74,29.56,34,10,35,0.00
2013-5-16,82.8,70.7,61.0,64.6,57.8,47.0,99,68,33,29.82,29.62,17,7,17,0.22
2013-5-17,85.1,69.4,57.2,63.9,57.3,48.8,99,70,35,29.95,29.82,13,4,13,0.00
2013-5-18,89.8,69.5,56.1,63.5,56.3,46.8,86,64,41,29.97,29.87,12,6,12,0.00
2013-5-19,82.9,69.0,58.8,65.6,61.6,57.7,96,79,56,29.95,29.83,13,6,13,0.05
2013-5-20,92.7,76.1,61.5,69.9,65.8,60.5,98,73,47,29.89,29.77,12,4,12,0.00
2013-5-21,91.9,77.9,65.7,72.9,68.5,65.4,99,75,47,29.82,29.68,13,5,13,0.00
2013-5-22,91.9,73.0,64.9,69.7,64.5,61.0,94,77,46,29.75,29.64,18,6,18,0.02
2013-5-23,81.7,64.7,51.1,66.1,62.0,50.6,99,92,55,29.72,29.63,23,6,23,0.83
2013-5-24,50.9,44.7,39.9,50.2,39.3,31.6,99,83,59,30.11,29.72,25,13,25,0.01
2013-5-25,63.0,48.1,31.8,40.3,35.2,31.6,99,65,36,30.13,30.04,25,9,25,0.00
2013-5-26,70.0,54.3,35.6,41.7,36.1,31.9,97,53,31,30.12,30.04,22,7,22,0.00
2013-5-27,66.2,55.8,42.4,49.9,43.7,35.0,90,65,45,30.11,29.97,9,4,9,0.00
2013-5-28,84.2,63.4,59.4,72.5,52.7,49.2,75,68,54,29.99,29.84,13,6,13,0.00
2013-5-29,90.9,76.4,66.4,67.0,62.6,60.4,83,64,42,29.94,29.86,18,7,18,0.00
2013-5-30,94.5,78.8,63.9,70.1,65.0,61.0,92,65,40,30.04,29.93,12,3,12,0.00
2013-5-31,95.4,79.4,65.3,69.5,66.1,63.6,99,67,41,29.98,29.84,16,4,16,0.00
2013-6-1,90.7,78.7,66.4,69.7,66.6,62.9,96,68,49,29.88,29.67,19,6,19,0.00
2013-6-2,83.8,73.9,67.5,69.3,65.0,61.1,99,75,51,29.72,29.65,20,8,20,0.13
2013-6-3,71.8,63.3,54.0,65.4,55.5,42.3,93,76,54,29.90,29.71,15,6,15,0.00
2013-6-4,81.0,61.3,42.1,50.6,45.4,40.2,99,59,34,30.00,29.90,13,4,13,0.00
2013-6-5,89.8,69.1,52.9,64.6,55.1,46.2,78,62,44,29.98,29.78,15,6,15,0.00
2013-6-6,71.8,65.3,62.2,66.5,63.0,59.5,99,93,71,29.80,29.63,13,5,13,1.91
2013-6-7,67.3,63.1,58.8,64.3,61.5,56.3,99,95,88,29.69,29.59,15,6,15,0.00
2013-6-8,79.0,64.2,55.9,60.0,56.3,54.1,96,78,50,29.95,29.69,13,4,13,0.00
2013-6-9,93.0,71.3,57.6,66.7,61.2,56.6,97,73,39,30.01,29.87,14,5,14,0.00
2013-6-10,79.9,70.1,64.6,73.0,67.7,64.0,99,92,76,29.87,29.64,14,5,14,0.43
2013-6-11,79.0,69.2,63.7,69.5,64.8,63.1,99,87,62,29.75,29.64,19,8,19,0.01
2013-6-12,84.7,74.5,63.5,73.2,67.5,63.1,99,80,56,29.76,29.61,16,5,17,0.00
2013-6-13,74.1,66.6,61.2,72.0,63.5,56.8,96,90,76,29.63,29.41,29,10,29,0.83
2013-6-14,77.2,64.5,54.7,60.5,57.1,53.6,97,79,52,29.90,29.63,20,6,20,0.00
2013-6-15,85.5,68.4,52.7,59.6,54.3,46.3,99,65,34,29.98,29.85,18,4,19,0.00
2013-6-16,74.7,67.6,61.5,69.4,63.8,55.5,97,88,66,29.87,29.76,17,6,17,0.31
2013-6-17,92.3,75.2,66.2,69.0,64.9,60.9,95,73,44,29.85,29.74,11,4,11,0.00
2013-6-18,83.1,69.7,63.5,70.3,64.6,61.1,96,84,65,29.79,29.69,21,3,21,0.00
2013-6-19,84.9,66.7,56.3,61.2,53.1,46.6,94,65,33,30.03,29.79,14,6,14,0.00
2013-6-20,90.5,71.0,51.1,61.9,54.7,49.1,96,61,33,30.07,29.98,10,3,11,0.00
2013-6-21,95.5,75.3,56.3,65.4,59.8,55.5,98,63,31,30.10,30.00,9,2,9,0.00
2013-6-22,93.9,78.3,62.6,73.1,67.5,60.4,97,72,49,30.06,29.92,14,4,14,0.00
2013-6-23,94.5,80.3,66.6,74.2,68.9,65.1,96,71,42,30.01,29.91,13,3,13,0.00
2013-6-24,94.1,80.4,66.6,72.8,68.7,65.4,97,70,45,29.99,29.85,16,4,16,0.00
2013-6-25,92.7,77.1,65.7,72.5,68.4,61.3,98,77,50,29.91,29.74,32,6,32,0.13
2013-6-26,87.4,73.9,64.9,72.2,68.4,64.6,99,85,57,29.84,29.68,16,5,16,2.05
2013-6-27,79.0,71.2,67.1,72.5,69.3,65.4,99,94,81,29.68,29.50,16,4,16,0.64
2013-6-28,81.4,68.6,61.8,72.1,66.2,60.6,99,93,66,29.52,29.37,16,3,35,0.37
2013-6-29,84.8,69.3,60.1,68.0,63.4,59.0,96,83,55,29.56,29.41,12,3,16,0.05
2013-6-30,92.4,73.0,62.1,70.5,65.0,60.7,96,77,48,29.70,29.55,21,3,26,0.00
2013-7-1,81.4,71.8,65.8,69.0,66.1,63.2,94,83,64,29.77,29.67,9,4,13,0.15
2013-7-2,76.3,76.3,76.3,68.2,68.2,68.2,76,76,76,29.73,29.73,7,7,7,0.00
2013-7-3,76.3,76.3,76.3,68.2,68.2,68.2,76,76,76,29.73,29.73,7,7,7,0.00
2013-7-4,98.1,78.7,69.3,72.0,69.0,67.7,99,74,42,30.15,29.73,14,6,14,0.59
2013-7-5,90.9,78.1,67.8,72.5,69.7,67.4,99,78,53,30.03,29.95,16,4,16,0.00
2013-7-6,99.5,81.9,69.4,74.0,70.9,67.5,99,72,44,30.03,29.88,13,3,13,0.00
2013-7-7,81.7,74.4,68.7,73.0,68.9,66.5,96,83,67,29.96,29.87,13,5,13,0.10
2013-7-8,88.0,75.1,66.0,72.1,67.9,63.8,99,80,57,29.98,29.89,16,4,16,0.00
2013-7-9,87.6,73.6,67.5,76.6,70.1,66.0,99,90,69,29.97,29.82,31,5,31,1.13
2013-7-10,92.3,72.4,65.1,78.5,68.9,64.8,99,90,66,29.87,29.68,41,4,41,2.19
2013-7-11,83.1,69.8,64.2,67.2,62.7,57.5,99,80,53,29.84,29.74,10,4,10,0.01
2013-7-12,75.2,67.2,58.5,66.5,61.2,55.8,92,81,70,30.00,29.83,13,5,13,0.00
2013-7-13,90.0,73.8,63.5,70.0,65.4,60.9,92,76,51,30.08,29.94,12,5,12,0.00
2013-7-14,100.6,83.3,71.2,73.8,69.6,66.8,87,65,41,30.22,30.07,10,4,11,0.00
2013-7-15,101.5,83.5,69.1,75.2,70.7,66.8,94,68,41,30.19,30.09,8,2,8,0.00
2013-7-16,98.4,78.1,70.7,76.6,71.9,69.4,99,83,55,30.17,30.09,36,3,36,0.20
2013-7-17,128.7,77.0,69.4,99.9,73.2,69.1,99,90,57,30.16,30.02,18,2,18,0.32
2013-7-18,140.0,95.5,-6.7,99.9,80.7,-12.5,97,79,49,30.21,29.89,13,3,13,0.00
2013-7-19,139.8,83.7,72.1,99.9,75.1,69.5,93,81,58,29.94,29.73,17,6,18,0.02
2013-7-20,84.9,75.4,70.0,74.4,69.3,65.8,92,82,71,29.78,29.71,17,6,17,0.01
2013-7-21,92.8,74.4,67.3,75.6,68.0,63.8,92,82,57,29.83,29.76,14,3,14,0.68
2013-7-22,117.7,73.4,65.1,99.9,68.6,63.3,94,87,64,29.81,29.64,16,2,16,1.76
2013-7-23,138.4,64.6,-11.9,99.9,57.3,-13.8,95,84,56,29.64,29.55,51,6,51,0.37
2013-7-24,137.5,62.4,-11.6,99.9,51.4,-12.9,95,71,44,29.83,29.60,13,6,13,0.00
2013-7-25,81.0,64.6,53.2,55.9,51.9,49.4,87,65,41,29.93,29.83,12,5,12,0.00
2013-7-26,89.6,70.9,53.2,62.0,56.3,51.2,93,63,38,29.95,29.84,10,2,10,0.00
2013-7-27,73.8,66.6,60.4,67.0,61.8,56.5,93,85,67,29.85,29.70,10,2,10,1.11
2013-7-28,81.0,68.4,57.6,64.6,59.8,53.6,93,76,50,29.88,29.71,18,6,18,0.35
2013-7-29,76.5,64.5,52.9,59.4,54.7,50.3,92,72,51,30.04,29.88,20,5,20,0.00
2013-7-30,86.4,68.6,53.6,65.5,57.4,51.3,92,70,44,30.08,29.99,10,2,10,0.00
2013-7-31,87.8,69.6,58.3,66.8,61.7,55.6,91,77,51,30.00,29.81,10,2,10,0.01
2013-8-1,84.4,71.3,64.9,67.1,63.2,59.6,93,77,52,29.81,29.71,17,6,17,0.03
2013-8-2,80.2,69.7,58.1,64.1,59.0,53.6,93,71,44,29.84,29.75,20,6,20,0.00
2013-8-3,80.6,68.8,62.1,69.0,62.8,54.9,93,82,66,29.84,29.77,25,5,25,0.30
2013-8-4,75.4,64.2,54.1,59.6,55.4,51.8,93,74,51,29.93,29.83,16,5,16,0.00
2013-8-5,83.5,65.8,51.6,61.8,54.8,49.4,93,70,40,29.98,29.87,9,2,9,0.00
2013-8-6,89.6,70.7,57.2,64.1,57.6,52.9,87,66,38,29.89,29.82,9,4,9,0.00
2013-8-7,134.8,78.0,-4.5,99.9,70.1,-13.5,94,81,55,29.87,29.78,24,4,24,0.37
2013-8-8,137.8,81.4,-3.6,99.9,74.2,-11.2,94,81,61,29.84,29.76,12,4,12,0.00
2013-8-9,79.9,73.4,67.6,72.1,68.8,64.6,92,86,71,29.87,29.75,20,5,20,0.33
2013-8-10,86.2,72.6,62.6,69.5,63.7,58.8,92,75,53,29.94,29.87,11,3,11,0.00
2013-8-11,91.6,72.1,62.1,70.6,63.8,57.5,90,76,52,29.97,29.86,12,4,12,0.21
2013-8-12,88.9,75.2,65.8,70.0,66.7,63.6,93,77,53,29.91,29.74,9,3,9,0.01
2013-8-13,79.7,70.0,57.9,67.9,62.1,50.7,91,77,57,29.82,29.65,23,8,23,0.00
2013-8-14,70.9,59.4,49.6,55.8,51.3,47.0,92,75,56,29.98,29.82,17,6,17,0.00
2013-8-15,78.1,62.4,47.7,57.7,50.8,45.8,94,68,40,30.04,29.94,10,2,10,0.00
2013-8-16,87.8,67.5,51.6,61.1,54.4,48.5,90,66,31,30.01,29.95,9,3,9,0.00
2013-8-17,81.7,67.5,56.7,59.6,56.2,52.1,87,69,40,30.09,30.01,16,5,16,0.00
2013-8-18,78.8,67.9,63.0,67.3,61.7,57.9,88,81,67,30.07,29.98,9,3,9,0.02
2013-8-19,85.3,70.3,64.2,70.3,64.7,60.9,95,83,59,30.00,29.91,10,3,10,0.06
2013-8-20,88.0,71.4,57.2,67.8,61.9,56.4,97,75,42,30.05,29.95,8,2,8,0.00
2013-8-21,94.3,73.6,59.7,70.5,63.8,58.3,95,74,42,30.05,29.90,9,3,9,0.00
2013-8-22,87.4,71.6,64.9,73.1,67.6,64.0,97,88,62,29.95,29.85,24,9,24,0.12
2013-8-23,92.8,73.4,66.6,69.2,64.8,56.0,93,76,40,29.98,29.88,17,8,17,0.01
2013-8-24,85.6,69.6,57.9,63.8,58.0,53.1,84,68,47,30.13,29.98,10,5,10,0.00
2013-8-25,89.2,71.9,58.3,66.6,60.4,53.6,86,69,44,30.20,30.07,12,3,12,0.00
2013-8-26,89.2,72.8,59.0,69.2,63.2,56.7,92,73,50,30.09,29.87,14,5,14,0.00
2013-8-27,84.0,75.0,69.3,73.7,68.6,64.6,90,81,69,29.87,29.78,17,5,17,0.00
2013-8-28,78.3,71.7,69.3,72.8,68.8,65.9,95,91,79,29.80,29.67,16,4,17,1.44
2013-8-29,89.1,75.1,68.7,71.2,68.2,66.3,93,80,58,29.87,29.75,9,4,9,0.00
2013-8-30,92.3,77.1,64.9,74.4,68.9,62.8,93,77,55,29.85,29.68,11,3,11,0.00
2013-8-31,91.4,77.1,69.4,73.5,69.3,66.3,90,78,55,29.72,28.86,12,5,12,0.00
2013-9-1,85.8,74.4,68.9,74.2,69.0,65.8,91,84,67,29.70,29.63,9,3,9,0.00
2013-9-2,87.3,74.4,67.5,73.5,68.1,63.3,92,81,62,29.69,29.58,22,5,22,0.04
2013-9-3,73.8,65.4,57.7,63.5,58.1,53.3,93,78,56,29.87,29.67,17,7,17,0.00
2013-9-4,82.6,64.4,50.0,60.7,55.0,47.8,93,74,44,29.97,29.87,16,4,16,0.00
2013-9-5,74.5,64.9,56.1,60.1,54.3,47.8,89,70,47,30.03,29.90,16,6,16,0.00
2013-9-6,83.5,60.1,46.2,50.2,46.2,40.5,90,63,28,30.15,29.96,10,4,10,0.00
2013-9-7,84.7,64.8,46.2,59.1,52.9,44.3,94,69,39,29.96,29.79,11,3,11,0.00
2013-9-8,80.4,69.1,61.9,68.8,62.2,58.0,87,79,63,29.89,29.76,14,4,14,0.00
2013-9-9,86.9,69.5,57.6,74.4,63.9,54.5,95,83,62,29.93,29.84,16,4,16,0.28
2013-9-10,93.0,78.3,68.7,78.0,71.9,66.8,95,82,63,29.98,29.89,14,5,14,0.00
2013-9-11,92.5,76.5,68.0,78.5,71.7,65.3,95,86,64,30.00,29.86,39,4,39,0.33
2013-9-12,78.6,70.6,62.4,70.8,66.5,59.1,92,87,76,29.86,29.64,23,5,23,0.13
2013-9-13,66.6,59.0,51.6,59.1,52.7,46.3,91,80,64,29.85,29.64,22,8,22,0.05
2013-9-14,70.7,55.6,48.7,50.7,46.0,41.3,86,72,44,30.11,29.85,12,4,12,0.00
2013-9-15,74.5,58.7,43.5,58.4,50.6,41.6,94,76,53,30.01,29.89,11,3,11,0.00
2013-9-16,71.1,60.5,52.7,56.7,53.8,48.8,93,79,56,30.13,29.90,13,5,13,0.28
2013-9-17,74.7,56.1,45.3,53.3,47.1,42.8,92,74,43,30.21,30.08,13,6,13,0.00
2013-9-18,80.8,60.6,46.9,57.1,49.1,42.1,85,68,42,30.09,29.94,10,3,10,0.00
2013-9-19,83.5,67.4,59.7,64.5,59.5,54.8,91,77,51,29.98,29.86,8,2,8,0.00
2013-9-20,85.3,70.3,57.9,71.0,64.1,55.3,94,81,62,29.88,29.68,10,3,10,0.00
2013-9-21,72.0,63.6,57.6,66.2,60.8,55.9,96,91,80,29.68,29.52,16,4,16,1.21
2013-9-22,63.9,56.2,52.5,55.7,50.7,47.0,95,83,58,29.84,29.62,16,6,16,0.01
2013-9-23,62.6,51.9,42.8,48.4,45.3,40.9,94,79,59,29.97,29.84,10,4,10,0.00
2013-9-24,73.8,53.0,38.1,49.8,44.6,37.3,98,76,44,29.94,29.79,10,4,11,0.00
2013-9-25,79.2,59.2,46.2,54.6,49.0,43.7,92,72,39,29.81,29.71,9,4,9,0.00
2013-9-26,80.2,62.0,49.5,55.4,50.5,46.7,91,69,37,29.90,29.76,11,4,11,0.00
2013-9-27,81.9,61.7,51.1,56.7,52.3,48.0,89,73,41,30.02,29.90,13,5,13,0.00
2013-9-28,77.4,61.3,51.1,56.9,52.6,48.9,94,75,50,30.09,29.98,14,6,14,0.00
2013-9-29,81.3,63.2,50.9,61.5,53.5,46.7,86,72,47,29.98,29.84,9,3,9,0.00
2013-9-30,73.9,62.4,52.5,64.0,56.8,49.7,91,82,69,29.93,29.81,9,2,9,0.00
2013-10-1,79.2,66.3,58.6,64.4,59.5,56.8,95,80,57,29.92,29.83,16,4,16,0.00
2013-10-2,82.4,67.8,57.9,67.1,61.3,56.3,95,81,57,29.93,29.87,16,4,16,0.00
2013-10-3,82.6,69.3,60.3,68.9,63.8,59.2,96,84,62,29.94,29.85,18,3,18,0.05
2013-10-4,84.4,70.0,63.5,71.2,65.7,62.3,96,87,58,29.94,29.86,21,3,21,0.26
2013-10-5,84.7,70.1,64.4,73.0,66.2,62.9,95,88,63,29.93,29.82,22,3,22,0.25
2013-10-6,88.7,74.4,65.3,69.1,64.5,60.4,95,74,45,29.82,29.61,14,4,14,0.13
2013-10-7,71.6,57.5,48.2,61.7,50.2,43.5,95,77,57,29.94,29.54,27,10,27,0.33
2013-10-8,67.6,53.4,40.6,49.9,45.1,38.7,93,75,49,30.12,29.95,13,4,13,0.00
2013-10-9,68.2,54.5,44.2,48.6,43.5,41.2,89,69,40,30.15,30.05,14,6,14,0.00
2013-10-10,72.9,56.1,46.6,49.8,44.8,41.1,86,68,41,30.05,29.92,11,6,11,0.00
2013-10-11,58.1,54.7,51.1,55.4,51.7,47.8,95,90,82,29.92,29.88,13,6,13,0.45
2013-10-12,74.3,62.5,54.0,63.7,57.2,51.2,91,83,68,30.04,29.88,12,5,12,0.00
2013-10-13,74.8,62.4,56.5,62.2,57.5,54.1,92,84,65,30.08,29.98,13,5,13,0.01
2013-10-14,61.2,58.8,57.0,57.6,56.5,55.3,95,92,88,30.12,30.05,8,4,8,0.05
2013-10-15,73.6,62.1,52.2,63.1,57.1,51.7,98,85,64,30.05,29.82,9,3,9,0.00
2013-10-16,64.8,59.7,55.4,60.5,56.1,52.3,94,88,81,29.82,29.70,10,4,10,0.31
2013-10-17,62.5,54.2,48.4,59.7,51.6,46.5,97,91,83,29.74,29.56,17,4,17,0.05
2013-10-18,64.2,51.7,44.2,46.5,43.1,39.9,93,74,48,29.84,29.72,20,8,20,0.00
2013-10-19,55.2,46.7,39.4,47.4,41.5,36.7,91,82,72,29.81,29.58,25,5,25,0.03
2013-10-20,60.3,46.5,37.6,42.4,38.0,34.9,91,74,47,29.87,29.76,21,7,21,0.00
2013-10-21,69.6,53.1,39.2,41.9,38.0,34.5,83,60,32,29.88,29.68,16,5,16,0.00
2013-10-22,55.2,47.1,40.1,46.7,36.5,28.5,92,68,42,29.79,29.66,27,8,27,0.12
2013-10-23,41.4,39.5,36.0,38.2,35.7,21.9,90,86,51,29.74,29.58,25,5,25,0.12
2013-10-24,46.2,38.1,32.7,33.6,31.7,28.3,90,79,53,29.95,29.73,28,10,28,0.00
2013-10-25,48.4,37.7,29.5,35.7,30.4,27.3,92,76,51,30.13,29.95,18,7,18,0.00
2013-10-26,52.2,40.4,29.8,32.8,28.8,26.4,89,66,41,30.06,29.71,29,10,29,0.00
2013-10-27,53.6,43.7,36.0,36.7,33.0,30.7,87,67,46,29.92,29.79,20,7,20,0.00
2013-10-28,63.3,45.2,30.4,39.7,33.9,28.1,92,68,38,30.10,29.92,9,2,9,0.00
2013-10-29,64.8,48.9,37.2,42.4,38.3,34.1,89,69,40,30.19,30.10,11,3,11,0.00
2013-10-30,49.6,49.6,49.6,39.5,39.5,39.5,68,68,68,30.10,30.10,3,3,3,0.00
2013-10-31,49.6,49.6,49.6,39.5,39.5,39.5,68,68,68,30.10,30.10,3,3,3,0.00
2013-11-1,49.6,49.6,49.6,39.5,39.5,39.5,68,68,68,30.10,30.10,3,3,3,0.00
2013-11-2,49.6,49.6,49.6,39.5,39.5,39.5,68,68,68,30.10,30.10,3,3,3,0.00
2013-11-3,49.6,49.6,49.6,39.5,39.5,39.5,68,68,68,30.10,30.10,3,3,3,0.00
2013-11-4,49.6,46.3,39.0,39.5,32.5,21.5,68,59,39,30.36,30.10,10,4,13,0.00
2013-11-5,59.5,47.1,37.2,35.7,30.8,25.7,72,54,39,30.31,30.14,8,3,10,0.00
2013-11-6,75.4,60.0,41.4,53.2,46.0,29.5,89,62,44,30.15,29.84,14,5,18,0.00
2013-11-7,70.0,70.0,70.0,52.1,52.1,52.1,53,53,53,29.84,29.84,7,7,7,0.00
2013-11-8,70.0,58.8,28.2,52.1,43.7,24.0,87,58,52,30.09,29.84,8,5,8,0.00
2013-11-9,61.0,43.1,27.3,32.5,26.7,23.1,92,58,27,30.08,29.77,18,6,18,0.00
2013-11-10,52.7,44.9,36.9,37.7,32.7,28.6,76,62,42,30.08,29.78,32,16,32,0.00
2013-11-11,49.3,40.5,29.5,40.6,31.5,24.2,97,72,38,30.08,29.84,20,8,20,0.00
2013-11-12,36.7,30.4,26.8,34.7,25.0,18.3,98,81,53,30.24,29.89,21,10,21,0.02
2013-11-13,38.7,29.0,23.0,25.1,22.2,19.7,96,77,50,30.31,30.17,18,10,18,0.00
2013-11-14,52.9,36.6,25.5,24.9,22.3,19.5,86,60,31,30.16,29.98,18,7,18,0.00
2013-11-15,58.8,46.5,37.6,38.3,25.0,20.5,63,44,25,30.03,29.95,21,6,21,0.00
2013-11-16,63.9,52.9,41.7,49.7,45.2,37.9,92,76,60,30.06,29.86,12,3,12,0.00
2013-11-17,61.5,57.3,52.2,59.1,53.7,48.1,98,88,80,29.87,29.38,33,6,33,0.54
2013-11-18,57.6,48.6,38.3,52.9,36.0,27.0,87,62,45,29.86,29.47,36,20,36,0.00
2013-11-19,38.3,35.2,30.2,28.3,25.7,23.5,76,68,61,30.20,29.86,24,9,24,0.00
2013-11-20,48.0,35.9,26.4,23.7,19.2,12.9,84,55,25,30.27,30.15,18,8,18,0.00
2013-11-21,57.4,44.9,34.0,41.3,31.2,17.9,70,59,48,30.23,30.04,8,4,8,0.00
2013-11-22,52.9,49.1,36.5,52.4,46.7,32.7,99,92,71,30.04,29.88,26,8,26,0.22
2013-11-23,38.1,30.9,19.8,32.7,23.6,7.9,95,75,52,30.11,29.92,33,15,34,0.00
2013-11-24,25.7,19.9,13.6,13.5,10.2,8.0,83,66,50,30.27,30.11,30,16,30,0.00
2013-11-25,38.1,25.4,11.1,24.8,10.7,6.2,90,58,29,30.28,30.00,13,5,13,0.00
2013-11-26,35.4,32.6,30.4,34.8,32.1,24.8,99,98,66,30.02,29.51,14,4,14,1.05
2013-11-27,32.9,28.2,22.1,32.7,26.0,17.4,99,92,78,29.90,29.51,28,15,28,0.01
2013-11-28,29.7,24.2,17.2,22.6,18.0,13.2,86,77,61,30.19,29.90,21,8,21,0.00
2013-11-29,36.0,28.9,24.4,24.0,21.7,19.7,87,75,56,30.43,30.19,13,4,13,0.01
2013-11-30,40.8,31.3,23.7,26.5,23.0,19.3,85,72,53,30.41,30.02,9,5,9,0.00
2013-12-1,45.5,39.4,31.5,32.5,29.6,25.4,79,68,57,30.02,29.78,12,4,12,0.00
2013-12-2,53.6,42.5,37.4,39.2,34.8,31.1,89,74,58,29.78,29.63,10,3,10,0.04
2013-12-3,58.1,44.3,36.9,44.3,39.1,35.4,98,83,59,29.72,29.65,9,3,9,0.00
2013-12-4,62.2,50.8,40.3,50.2,43.9,36.8,88,78,64,29.81,29.69,8,3,8,0.00
2013-12-5,64.8,55.7,39.6,58.7,52.6,39.1,99,90,73,29.85,29.69,21,7,21,1.09
2013-12-6,39.6,33.3,28.2,38.9,32.7,27.7,99,97,91,30.06,29.83,15,7,18,0.34
2013-12-7,30.6,26.1,20.1,27.7,22.3,16.0,98,86,70,30.36,30.05,14,6,14,0.01
2013-12-8,31.1,23.4,17.6,30.9,20.5,13.9,99,89,81,30.35,29.87,16,8,16,0.15
2013-12-9,37.9,34.3,29.7,37.6,32.4,25.2,99,93,81,29.93,29.76,25,10,25,0.21
2013-12-10,29.7,26.0,22.1,25.2,19.5,9.9,97,77,46,30.04,29.83,30,13,30,0.00
2013-12-11,30.4,23.9,17.1,23.3,15.7,12.8,93,71,53,30.14,30.01,24,11,24,0.00
2013-12-12,22.8,18.4,11.8,14.7,8.3,4.5,82,65,48,30.25,30.04,25,13,25,0.00
2013-12-13,35.8,26.5,19.2,21.0,14.3,6.6,72,60,50,30.04,29.98,20,8,20,0.00
2013-12-14,38.5,32.6,28.9,38.2,28.6,20.2,99,86,63,30.03,29.46,14,5,14,0.34
2013-12-15,39.0,29.8,21.2,38.7,26.2,11.2,99,87,61,29.81,29.42,36,18,36,0.02
2013-12-16,25.7,21.9,18.3,22.2,16.8,12.1,91,81,68,29.96,29.81,24,7,24,0.00
2013-12-17,34.0,30.5,24.4,32.3,27.6,22.4,98,89,77,29.83,29.72,23,7,23,0.02
2013-12-18,29.5,26.3,20.8,24.4,21.6,17.0,94,82,71,29.99,29.83,26,10,26,0.00
2013-12-19,54.9,41.1,26.1,37.6,29.0,20.1,83,63,49,29.91,29.83,24,8,24,0.00
2013-12-20,57.6,50.7,42.6,49.9,39.8,28.7,92,68,45,29.83,29.72,20,7,20,0.03
2013-12-21,60.3,57.2,53.6,59.4,55.0,49.2,99,92,83,29.72,29.50,18,6,18,0.79
2013-12-22,83.5,59.3,39.9,68.5,57.3,-13.6,99,93,74,29.76,29.39,40,11,40,0.21
2013-12-23,58.1,49.3,46.6,56.4,48.7,46.3,99,98,94,30.07,29.75,25,10,25,0.05
2013-12-24,46.6,46.6,46.6,46.3,46.3,14.0,99,99,99,30.29,30.01,26,12,26,0.00
2013-12-25,46.6,46.6,46.6,46.3,46.3,46.3,99,99,99,30.28,30.01,8,3,8,0.00
2013-12-26,46.6,46.6,46.6,46.3,46.3,46.3,99,99,99,30.14,29.92,30,10,30,0.00
2013-12-27,46.6,46.6,46.6,46.3,46.3,46.3,99,99,99,30.15,30.06,17,5,17,0.00
2013-12-28,46.6,46.6,46.6,46.3,46.3,46.3,99,99,99,30.06,29.86,21,7,21,0.00
2013-12-29,46.6,46.6,46.6,46.3,46.3,46.3,99,99,99,29.87,29.47,26,7,26,0.55
2013-12-30,46.6,46.6,46.6,46.3,46.3,46.3,99,99,99,29.97,29.64,23,9,23,0.00
2013-12-31,46.6,46.6,46.6,46.3,46.3,46.3,99,99,99,30.09,29.86,32,11,32,0.00
2014-1-1,46.6,46.6,46.6,46.3,46.3,46.3,99,99,99,30.10,29.84,12,5,12,0.00
2014-1-2,46.6,46.6,46.6,46.3,46.3,46.3,99,99,99,29.84,29.47,21,6,21,0.00